createdAt,value
2023-05-24T00:00:47.736Z,26.40
2023-05-24T00:03:34.959Z,25.10
2023-05-24T00:06:07.633Z,22.20
2023-05-24T00:08:39.383Z,21.60
2023-05-24T00:11:11.443Z,20.90
2023-05-24T00:13:43.184Z,20.10
2023-05-24T00:16:15.080Z,23.80
2023-05-24T00:18:47.132Z,19.00
2023-05-24T00:21:19.041Z,20.00
2023-05-24T00:23:51.798Z,18.20
2023-05-24T00:26:23.635Z,24.90
2023-05-24T00:28:58.253Z,22.90
2023-05-24T00:31:29.948Z,19.60
2023-05-24T00:34:01.744Z,16.30
2023-05-24T00:36:33.970Z,23.60
2023-05-24T00:39:05.853Z,16.80
2023-05-24T00:41:38.694Z,18.90
2023-05-24T00:44:11.302Z,22.50
2023-05-24T00:46:43.632Z,19.70
2023-05-24T00:49:15.587Z,19.70
2023-05-24T00:51:47.411Z,19.20
2023-05-24T00:54:19.177Z,19.90
2023-05-24T00:56:51.859Z,22.00
2023-05-24T00:59:24.075Z,17.90
2023-05-24T01:01:56.490Z,25.10
2023-05-24T01:04:28.732Z,23.50
2023-05-24T01:07:13.070Z,28.50
2023-05-24T01:09:55.149Z,22.70
2023-05-24T01:12:35.963Z,21.50
2023-05-24T01:15:18.610Z,20.20
2023-05-24T01:18:02.555Z,22.60
2023-05-24T01:20:38.360Z,18.80
2023-05-24T01:23:40.219Z,25.40
2023-05-24T01:26:39.421Z,27.70
2023-05-24T01:29:12.101Z,18.00
2023-05-24T01:34:15.712Z,20.10
2023-05-24T01:36:47.599Z,21.30
2023-05-24T01:39:19.515Z,19.20
2023-05-24T01:42:01.027Z,16.60
2023-05-24T01:44:38.971Z,16.70
2023-05-24T01:47:22.063Z,22.00
2023-05-24T01:50:00.494Z,18.80
2023-05-24T01:52:36.158Z,17.00
2023-05-24T01:55:10.692Z,19.50
2023-05-24T01:57:45.058Z,17.70
2023-05-24T02:00:20.708Z,19.50
2023-05-24T02:02:52.948Z,21.10
2023-05-24T02:05:25.224Z,16.80
2023-05-24T02:07:57.013Z,19.00
2023-05-24T02:10:29.035Z,15.20
2023-05-24T02:13:01.056Z,15.70
2023-05-24T02:15:32.983Z,15.80
2023-05-24T02:18:07.993Z,15.10
2023-05-24T02:20:40.673Z,16.80
2023-05-24T02:23:12.689Z,18.30
2023-05-24T02:25:44.790Z,14.70
2023-05-24T02:28:16.594Z,17.00
2023-05-24T02:30:49.037Z,15.70
2023-05-24T02:33:21.083Z,16.60
2023-05-24T02:35:52.932Z,15.10
2023-05-24T02:38:24.717Z,15.20
2023-05-24T02:40:56.549Z,16.30
2023-05-24T02:43:28.248Z,12.00
2023-05-24T02:46:00.406Z,13.60
2023-05-24T02:48:32.301Z,17.80
2023-05-24T02:51:04.460Z,14.50
2023-05-24T02:53:36.317Z,12.60
2023-05-24T02:56:08.654Z,13.00
2023-05-24T02:58:41.493Z,11.00
2023-05-24T03:01:13.564Z,12.30
2023-05-24T03:03:45.817Z,12.10
2023-05-24T03:06:18.102Z,11.20
2023-05-24T03:08:51.066Z,9.50
2023-05-24T03:11:23.881Z,9.30
2023-05-24T03:13:55.615Z,7.60
2023-05-24T03:16:28.246Z,9.90
2023-05-24T03:19:00.374Z,7.30
2023-05-24T03:21:33.003Z,8.30
2023-05-24T03:24:04.920Z,9.20
2023-05-24T03:26:37.352Z,6.40
2023-05-24T03:29:10.043Z,9.70
2023-05-24T03:31:44.409Z,12.90
2023-05-24T03:34:16.363Z,15.90
2023-05-24T03:36:48.946Z,14.30
2023-05-24T03:39:20.682Z,17.60
2023-05-24T03:41:59.499Z,16.00
2023-05-24T03:44:31.275Z,18.20
2023-05-24T03:47:04.828Z,14.10
2023-05-24T03:49:37.046Z,17.00
2023-05-24T03:52:09.388Z,19.80
2023-05-24T03:54:41.158Z,22.60
2023-05-24T03:57:12.899Z,19.70
2023-05-24T03:59:44.655Z,21.60
2023-05-24T04:02:16.600Z,24.20
2023-05-24T04:04:49.221Z,31.10
2023-05-24T04:07:24.409Z,16.00
2023-05-24T04:09:56.114Z,20.00
2023-05-24T04:12:27.854Z,10.50
2023-05-24T04:15:00.798Z,20.40
2023-05-24T04:17:35.315Z,15.70
2023-05-24T04:20:08.815Z,17.00
2023-05-24T04:22:40.889Z,17.60
2023-05-24T04:25:12.917Z,22.50
2023-05-24T04:27:48.231Z,14.80
2023-05-24T04:30:21.401Z,14.50
2023-05-24T04:32:53.862Z,21.90
2023-05-24T04:35:26.506Z,16.50
2023-05-24T04:37:59.776Z,18.10
2023-05-24T04:40:32.164Z,14.50
2023-05-24T04:43:03.913Z,10.40
2023-05-24T04:45:35.605Z,14.90
2023-05-24T04:48:08.167Z,16.80
2023-05-24T04:50:40.283Z,14.80
2023-05-24T04:53:12.214Z,16.00
2023-05-24T04:55:44.844Z,15.20
2023-05-24T04:58:17.122Z,11.10
2023-05-24T05:00:49.078Z,12.10
2023-05-24T05:03:21.000Z,15.30
2023-05-24T05:05:53.557Z,12.90
2023-05-24T05:08:25.306Z,13.10
2023-05-24T05:10:57.652Z,15.50
2023-05-24T05:13:29.387Z,15.80
2023-05-24T05:16:01.925Z,15.00
2023-05-24T05:18:33.899Z,16.90
2023-05-24T05:21:06.442Z,10.10
2023-05-24T05:23:39.748Z,16.30
2023-05-24T05:26:11.677Z,13.60
2023-05-24T05:28:43.796Z,14.70
2023-05-24T05:31:16.071Z,16.60
2023-05-24T05:33:48.028Z,9.50
2023-05-24T05:36:20.508Z,10.90
2023-05-24T05:38:52.371Z,12.10
2023-05-24T05:41:24.275Z,13.10
2023-05-24T05:43:56.057Z,4.90
2023-05-24T05:46:27.829Z,7.70
2023-05-24T05:48:59.807Z,8.00
2023-05-24T05:51:31.925Z,4.50
2023-05-24T05:54:03.728Z,6.10
2023-05-24T05:56:41.114Z,5.50
2023-05-24T05:59:13.078Z,3.80
2023-05-24T06:01:47.066Z,6.40
2023-05-24T06:04:19.372Z,11.70
2023-05-24T06:06:52.128Z,8.30
2023-05-24T06:09:24.154Z,3.20
2023-05-24T06:11:55.926Z,3.60
2023-05-24T06:14:27.823Z,1.30
2023-05-24T06:17:00.392Z,3.90
2023-05-24T06:22:03.320Z,4.00
2023-05-24T06:24:35.312Z,3.00
2023-05-24T06:27:07.995Z,3.20
2023-05-24T06:32:11.204Z,3.60
2023-05-24T06:37:15.706Z,6.30
2023-05-24T06:39:47.588Z,3.60
2023-05-24T06:42:19.382Z,26.30
2023-05-24T06:44:51.392Z,2.70
2023-05-24T06:47:23.829Z,1.80
2023-05-24T06:52:26.181Z,2.20
2023-05-24T06:54:57.998Z,2.70
2023-05-24T06:57:30.182Z,1.50
2023-05-24T07:00:02.034Z,2.90
2023-05-24T07:02:34.437Z,4.50
2023-05-24T07:05:10.800Z,3.20
2023-05-24T07:07:43.858Z,3.30
2023-05-24T07:10:15.862Z,3.20
2023-05-24T07:12:47.865Z,3.60
2023-05-24T07:15:19.619Z,6.20
2023-05-24T07:17:51.572Z,4.00
2023-05-24T07:20:23.461Z,3.90
2023-05-24T07:22:55.299Z,4.30
2023-05-24T07:25:27.482Z,2.80
2023-05-24T07:27:59.245Z,6.40
2023-05-24T07:30:32.733Z,4.20
2023-05-24T07:33:05.024Z,6.70
2023-05-24T07:35:37.036Z,8.20
2023-05-24T07:38:09.200Z,5.30
2023-05-24T07:40:41.391Z,3.90
2023-05-24T07:43:13.487Z,6.00
2023-05-24T07:45:45.427Z,10.30
2023-05-24T07:48:17.353Z,4.40
2023-05-24T07:50:50.069Z,8.40
2023-05-24T07:53:22.942Z,5.80
2023-05-24T07:55:55.136Z,8.20
2023-05-24T07:58:27.575Z,7.30
2023-05-24T08:00:59.513Z,10.60
2023-05-24T08:03:31.440Z,11.30
2023-05-24T08:06:04.047Z,7.90
2023-05-24T08:08:36.312Z,7.50
2023-05-24T08:11:09.030Z,8.70
2023-05-24T08:16:11.159Z,12.50
2023-05-24T08:18:43.089Z,10.60
2023-05-24T08:21:14.906Z,12.30
2023-05-24T08:23:46.667Z,10.90
2023-05-24T08:26:20.956Z,9.90
2023-05-24T08:28:52.908Z,10.20
2023-05-24T08:31:24.753Z,10.80
2023-05-24T08:33:57.754Z,9.00
2023-05-24T08:36:29.564Z,9.50
2023-05-24T08:39:01.336Z,11.40
2023-05-24T08:41:37.351Z,10.00
2023-05-24T08:44:09.747Z,7.60
2023-05-24T08:46:41.915Z,12.50
2023-05-24T08:49:15.118Z,12.30
2023-05-24T08:51:47.898Z,11.70
2023-05-24T08:54:21.260Z,11.80
2023-05-24T08:56:53.996Z,13.10
2023-05-24T09:01:58.619Z,12.70
2023-05-24T09:04:31.624Z,15.00
2023-05-24T09:07:04.078Z,12.80
2023-05-24T09:09:44.542Z,18.50
2023-05-24T09:14:59.933Z,16.60
2023-05-24T09:20:09.918Z,20.90
2023-05-24T09:22:44.092Z,15.00
2023-05-24T09:25:16.798Z,17.50
2023-05-24T09:27:53.136Z,17.40
2023-05-24T09:30:25.143Z,19.10
2023-05-24T09:33:02.250Z,14.70
2023-05-24T09:35:34.430Z,15.00
2023-05-24T09:38:06.294Z,16.10
2023-05-24T09:40:38.265Z,16.30
2023-05-24T09:43:10.962Z,22.90
2023-05-24T09:48:16.688Z,17.70
2023-05-24T09:51:01.191Z,17.20
2023-05-24T09:53:34.956Z,17.80
2023-05-24T09:56:09.318Z,18.30
2023-05-24T09:58:42.451Z,17.90
2023-05-24T10:01:16.487Z,19.00
2023-05-24T10:03:57.596Z,18.30
2023-05-24T10:06:32.722Z,23.30
2023-05-24T10:09:07.882Z,14.30
2023-05-24T10:11:40.046Z,17.50
2023-05-24T10:14:12.644Z,22.30
2023-05-24T10:16:45.751Z,20.70
2023-05-24T10:19:18.519Z,23.60
2023-05-24T10:21:53.661Z,19.10
2023-05-24T10:24:27.542Z,20.40
2023-05-24T10:27:02.717Z,25.60
2023-05-24T10:29:45.955Z,19.50
2023-05-24T10:32:20.568Z,16.50
2023-05-24T10:34:54.629Z,19.10
2023-05-24T10:37:27.518Z,17.00
2023-05-24T10:40:01.033Z,19.40
2023-05-24T10:42:36.274Z,26.30
2023-05-24T10:45:33.489Z,22.40
2023-05-24T10:48:31.192Z,23.00
2023-05-24T10:51:25.188Z,24.60
2023-05-24T10:53:59.717Z,15.80
2023-05-24T10:56:31.737Z,15.40
2023-05-24T10:59:06.257Z,18.50
2023-05-24T11:01:38.839Z,20.90
2023-05-24T11:04:13.222Z,24.40
2023-05-24T11:06:58.007Z,19.90
2023-05-24T11:09:30.663Z,17.30
2023-05-24T11:12:07.385Z,19.10
2023-05-24T11:14:41.068Z,21.50
2023-05-24T11:17:13.275Z,17.30
2023-05-24T11:19:51.716Z,24.70
2023-05-24T11:22:26.761Z,18.10
2023-05-24T11:25:04.246Z,24.20
2023-05-24T11:27:36.642Z,16.60
2023-05-24T11:30:12.420Z,16.80
2023-05-24T11:32:48.448Z,19.20
2023-05-24T11:35:23.215Z,23.40
2023-05-24T11:37:56.126Z,19.00
2023-05-24T11:40:28.271Z,23.60
2023-05-24T11:43:01.210Z,19.70
2023-05-24T11:45:33.593Z,19.80
2023-05-24T11:48:08.623Z,22.10
2023-05-24T11:50:49.892Z,27.60
2023-05-24T11:53:23.205Z,28.40
2023-05-24T11:58:39.763Z,17.40
2023-05-24T12:01:26.008Z,15.90
2023-05-24T12:03:58.180Z,21.10
2023-05-24T12:06:39.440Z,14.80
2023-05-24T12:09:13.798Z,19.30
2023-05-24T12:11:48.140Z,15.60
2023-05-24T12:14:24.022Z,17.50
2023-05-24T12:16:58.036Z,16.80
2023-05-24T12:19:36.471Z,18.50
2023-05-24T12:22:09.974Z,17.90
2023-05-24T12:24:42.391Z,21.80
2023-05-24T12:27:14.569Z,18.20
2023-05-24T12:29:46.480Z,23.30
2023-05-24T12:32:20.089Z,17.00
2023-05-24T12:34:52.468Z,26.90
2023-05-24T12:37:24.635Z,14.70
2023-05-24T12:39:56.762Z,20.50
2023-05-24T12:42:28.809Z,23.80
2023-05-24T12:45:01.192Z,19.60
2023-05-24T12:47:33.231Z,20.50
2023-05-24T12:50:05.507Z,19.80
2023-05-24T12:52:37.328Z,19.80
2023-05-24T12:55:10.686Z,17.50
2023-05-24T12:57:43.568Z,20.20
2023-05-24T13:00:16.896Z,28.30
2023-05-24T13:02:50.008Z,29.10
2023-05-24T13:05:22.628Z,22.30
2023-05-24T13:07:56.345Z,20.20
2023-05-24T13:10:28.603Z,20.30
2023-05-24T13:13:00.553Z,19.30
2023-05-24T13:15:32.609Z,13.90
2023-05-24T13:18:04.978Z,15.10
2023-05-24T13:20:37.339Z,17.70
2023-05-24T13:23:09.416Z,18.00
2023-05-24T13:25:41.213Z,19.60
2023-05-24T13:28:13.566Z,20.20
2023-05-24T13:30:45.640Z,16.90
2023-05-24T13:33:18.239Z,24.20
2023-05-24T13:35:50.284Z,17.00
2023-05-24T13:38:22.370Z,20.20
2023-05-24T13:40:56.355Z,19.50
2023-05-24T13:43:28.306Z,21.70
2023-05-24T13:46:00.236Z,15.90
2023-05-24T13:48:32.475Z,16.50
2023-05-24T13:51:04.440Z,9.60
2023-05-24T13:53:36.514Z,16.00
2023-05-24T13:56:08.926Z,16.50
2023-05-24T13:58:40.786Z,14.70
2023-05-24T14:01:14.217Z,23.80
2023-05-24T14:03:46.230Z,14.20
2023-05-24T14:06:19.991Z,20.50
2023-05-24T14:08:52.052Z,17.60
2023-05-24T14:11:24.616Z,13.90
2023-05-24T14:14:47.517Z,16.70
2023-05-24T14:16:51.931Z,19.20
2023-05-24T14:19:23.934Z,21.60
2023-05-24T14:21:56.214Z,20.90
2023-05-24T14:24:28.129Z,20.90
2023-05-24T14:26:59.961Z,20.70
2023-05-24T14:29:31.733Z,16.10
2023-05-24T14:32:03.831Z,14.20
2023-05-24T14:34:35.748Z,18.90
2023-05-24T14:37:08.160Z,18.60
2023-05-24T14:39:39.906Z,19.30
2023-05-24T14:42:11.822Z,15.60
2023-05-24T14:44:43.519Z,17.80
2023-05-24T14:47:15.435Z,20.10
2023-05-24T14:49:47.244Z,16.10
2023-05-24T14:52:19.214Z,13.10
2023-05-24T14:54:51.470Z,15.10
2023-05-24T14:57:23.986Z,15.50
2023-05-24T14:59:56.030Z,15.50
2023-05-24T15:02:28.195Z,15.60
2023-05-24T15:05:00.541Z,19.40
2023-05-24T15:07:32.854Z,19.30
2023-05-24T15:10:04.776Z,13.60
2023-05-24T15:12:36.871Z,14.00
2023-05-24T15:17:41.227Z,16.30
2023-05-24T15:20:13.840Z,17.60
2023-05-24T15:22:45.978Z,13.10
2023-05-24T15:25:17.945Z,14.30
2023-05-24T15:27:51.444Z,16.90
2023-05-24T15:30:24.061Z,16.30
2023-05-24T15:32:57.163Z,15.80
2023-05-24T15:35:29.295Z,18.30
2023-05-24T15:38:01.251Z,11.60
2023-05-24T15:40:33.349Z,18.00
2023-05-24T15:43:05.816Z,14.00
2023-05-24T15:45:37.797Z,12.70
2023-05-24T15:48:10.014Z,19.10
2023-05-24T15:53:17.680Z,21.10
2023-05-24T15:55:51.159Z,15.60
2023-05-24T15:58:23.265Z,14.00
2023-05-24T16:00:55.196Z,13.90
2023-05-24T16:03:27.624Z,16.40
2023-05-24T16:05:59.653Z,14.40
2023-05-24T16:08:32.075Z,15.00
2023-05-24T16:11:08.151Z,18.90
2023-05-24T16:13:40.351Z,12.90
2023-05-24T16:16:13.181Z,16.30
2023-05-24T16:18:45.041Z,14.00
2023-05-24T16:21:16.982Z,16.20
2023-05-24T16:23:49.326Z,14.60
2023-05-24T16:28:52.444Z,16.90
2023-05-24T16:31:24.934Z,12.80
2023-05-24T16:33:58.685Z,19.20
2023-05-24T16:36:31.386Z,15.00
2023-05-24T16:39:03.929Z,14.00
2023-05-24T16:41:37.738Z,20.50
2023-05-24T16:44:10.459Z,21.30
2023-05-24T16:46:42.900Z,12.90
2023-05-24T16:49:15.068Z,14.70
2023-05-24T16:51:47.164Z,15.80
2023-05-24T16:54:19.344Z,14.60
2023-05-24T16:56:53.831Z,14.30
2023-05-24T16:59:25.960Z,17.60
2023-05-24T17:01:58.769Z,11.90
2023-05-24T17:04:31.647Z,16.00
2023-05-24T17:07:03.628Z,16.30
2023-05-24T17:09:35.906Z,16.80
2023-05-24T17:12:08.968Z,11.40
2023-05-24T17:17:13.259Z,13.00
2023-05-24T17:19:45.630Z,16.60
2023-05-24T17:22:17.644Z,13.20
2023-05-24T17:24:49.808Z,15.20
2023-05-24T17:27:22.564Z,14.30
2023-05-24T17:29:58.651Z,13.30
2023-05-24T17:32:31.216Z,14.20
2023-05-24T17:35:03.636Z,15.60
2023-05-24T17:37:36.063Z,15.90
2023-05-24T17:40:10.388Z,13.00
2023-05-24T17:42:43.276Z,15.40
2023-05-24T17:45:15.519Z,14.80
2023-05-24T17:47:47.685Z,17.70
2023-05-24T17:50:20.604Z,17.30
2023-05-24T17:52:53.176Z,14.10
2023-05-24T17:55:25.218Z,19.00
2023-05-24T18:00:28.816Z,18.70
2023-05-24T18:03:01.131Z,14.80
2023-05-24T18:05:33.337Z,14.20
2023-05-24T18:08:05.279Z,19.70
2023-05-24T18:10:38.619Z,15.00
2023-05-24T18:13:10.663Z,13.80
2023-05-24T18:15:43.826Z,17.70
2023-05-24T18:18:16.583Z,16.40
2023-05-24T18:20:49.915Z,19.20
2023-05-24T18:23:22.792Z,16.30
2023-05-24T18:26:00.158Z,15.10
2023-05-24T18:28:36.748Z,14.00
2023-05-24T18:31:11.321Z,16.10
2023-05-24T18:33:44.700Z,16.50
2023-05-24T18:36:16.945Z,16.20
2023-05-24T18:38:49.256Z,17.70
2023-05-24T18:41:22.855Z,21.00
2023-05-24T18:43:54.727Z,16.70
2023-05-24T18:46:27.886Z,20.80
2023-05-24T18:49:01.736Z,20.50
2023-05-24T18:51:33.897Z,18.20
2023-05-24T18:54:06.892Z,18.30
2023-05-24T18:56:39.052Z,17.30
2023-05-24T18:59:12.437Z,19.00
2023-05-24T19:01:45.833Z,15.80
2023-05-24T19:04:18.226Z,14.60
2023-05-24T19:06:50.402Z,22.00
2023-05-24T19:09:22.785Z,12.30
2023-05-24T19:14:26.768Z,18.00
2023-05-24T19:17:02.453Z,15.00
2023-05-24T19:19:39.323Z,15.40
2023-05-24T19:22:11.566Z,19.80
2023-05-24T19:24:47.951Z,19.10
2023-05-24T19:27:21.939Z,18.00
2023-05-24T19:29:59.051Z,21.50
2023-05-24T19:32:31.352Z,18.30
2023-05-24T19:35:03.714Z,19.00
2023-05-24T19:37:35.620Z,21.10
2023-05-24T19:40:10.768Z,17.50
2023-05-24T19:42:42.845Z,18.60
2023-05-24T19:45:15.205Z,19.80
2023-05-24T19:47:47.941Z,18.00
2023-05-24T19:50:21.791Z,18.10
2023-05-24T19:52:53.551Z,21.70
2023-05-24T19:55:25.639Z,20.90
2023-05-24T19:57:58.162Z,25.80
2023-05-24T20:00:31.732Z,22.70
2023-05-24T20:03:04.200Z,19.60
2023-05-24T20:05:38.289Z,22.30
2023-05-24T20:08:10.611Z,20.20
2023-05-24T20:10:43.980Z,27.00
2023-05-24T20:13:17.358Z,20.50
2023-05-24T20:15:49.514Z,21.40
2023-05-24T20:18:23.160Z,21.20
2023-05-24T20:20:57.437Z,22.20
2023-05-24T20:23:30.814Z,19.30
2023-05-24T20:26:06.160Z,23.50
2023-05-24T20:28:38.305Z,24.60
2023-05-24T20:31:10.324Z,17.70
2023-05-24T20:33:42.507Z,17.60
2023-05-24T20:36:15.964Z,20.80
2023-05-24T20:38:48.920Z,24.50
2023-05-24T20:41:20.842Z,24.90
2023-05-24T20:43:52.733Z,21.10
2023-05-24T20:48:57.036Z,19.40
2023-05-24T20:51:28.931Z,23.30
2023-05-24T20:54:00.967Z,24.30
2023-05-24T20:56:32.785Z,23.00
2023-05-24T20:59:04.904Z,21.60
2023-05-24T21:01:37.346Z,20.90
2023-05-24T21:04:09.296Z,19.10
2023-05-24T21:06:41.540Z,21.60
2023-05-24T21:09:13.411Z,16.00
2023-05-24T21:11:45.606Z,17.60
2023-05-24T21:14:17.401Z,20.50
2023-05-24T21:16:49.281Z,21.60
2023-05-24T21:19:21.594Z,13.60
2023-05-24T21:21:53.332Z,23.90
2023-05-24T21:24:25.194Z,16.90
2023-05-24T21:26:57.468Z,17.50
2023-05-24T21:29:29.938Z,17.90
2023-05-24T21:32:02.549Z,22.00
2023-05-24T21:34:35.869Z,18.50
2023-05-24T21:37:08.406Z,15.40
2023-05-24T21:39:40.324Z,16.30
2023-05-24T21:42:12.912Z,13.70
2023-05-24T21:44:44.975Z,16.00
2023-05-24T21:47:17.166Z,19.90
2023-05-24T21:49:50.857Z,21.50
2023-05-24T21:52:24.369Z,18.20
2023-05-24T21:54:56.180Z,15.80
2023-05-24T21:57:28.030Z,13.40
2023-05-24T21:59:59.806Z,16.90
2023-05-24T22:02:32.287Z,22.60
2023-05-24T22:05:05.249Z,20.90
2023-05-24T22:07:38.008Z,19.10
2023-05-24T22:10:12.276Z,23.10
2023-05-24T22:12:44.103Z,16.30
2023-05-24T22:15:15.916Z,17.40
2023-05-24T22:17:48.168Z,13.50
2023-05-24T22:20:20.232Z,17.70
2023-05-24T22:22:53.712Z,15.80
2023-05-24T22:25:25.770Z,18.90
2023-05-24T22:27:57.723Z,15.10
2023-05-24T22:30:31.832Z,21.50
2023-05-24T22:33:03.850Z,15.40
2023-05-24T22:35:35.557Z,21.20
2023-05-24T22:38:07.275Z,23.80
2023-05-24T22:40:41.898Z,22.00
2023-05-24T22:43:14.355Z,18.90
2023-05-24T22:45:46.216Z,23.40
2023-05-24T22:48:19.403Z,18.90
2023-05-24T22:50:54.363Z,18.60
2023-05-24T22:53:26.579Z,18.90
2023-05-24T22:55:58.429Z,20.80
2023-05-24T22:58:30.304Z,21.00
2023-05-24T23:01:02.052Z,14.90
2023-05-24T23:03:33.880Z,21.00
2023-05-24T23:06:05.744Z,18.40
2023-05-24T23:08:37.502Z,20.60
2023-05-24T23:11:10.589Z,23.10
2023-05-24T23:13:42.723Z,20.80
2023-05-24T23:16:18.030Z,18.60
2023-05-24T23:18:49.868Z,23.60
2023-05-24T23:21:22.398Z,29.30
2023-05-24T23:23:56.988Z,21.10
2023-05-24T23:26:29.033Z,25.00
2023-05-24T23:29:00.795Z,23.50
2023-05-24T23:31:32.583Z,25.30
2023-05-24T23:34:05.140Z,21.00
2023-05-24T23:36:36.996Z,22.90
2023-05-24T23:39:10.925Z,16.80
2023-05-24T23:41:42.637Z,22.60
2023-05-24T23:44:14.731Z,21.10
2023-05-24T23:46:47.999Z,28.10
2023-05-24T23:49:20.080Z,17.50
2023-05-24T23:51:51.773Z,22.50
2023-05-24T23:54:23.474Z,22.60
2023-05-24T23:56:55.189Z,29.10
2023-05-24T23:59:26.961Z,24.80
